Time;durP1;ratioP1;P1;durP2;ratioP2;P2;SDS_P1;SDS_P2;PMS_P1;PMS_P2;Temp;Humidity;BMP_temperature;BMP_pressure;BME280_temperature;BME280_humidity;BME280_pressure;Samples;Min_cycle;Max_cycle;Signal;HPM_P1;HPM_P2
2022/08/16 00:00:56;;;;;;;;;;;;;;;25.90;100.00;98075.25;5083607;28;19977;-85
2022/08/16 00:03:22;;;;;;;;;;;;;;;25.59;100.00;98069.84;5079853;27;20417;-85
2022/08/16 00:05:47;;;;;;;;;;;;;;;25.63;100.00;98071.97;5080816;27;20261;-85
2022/08/16 00:08:12;;;;;;;;;;;;;;;25.37;100.00;98074.03;5076380;27;19959;-85
2022/08/16 00:10:38;;;;;;;;;;;;;;;26.02;100.00;98071.28;5093932;27;19919;-85
2022/08/16 00:13:04;;;;;;;;;;;;;;;26.36;100.00;98064.03;5094936;28;20431;-85
2022/08/16 00:15:32;;;;;;;;;;;;;;;26.50;99.63;98050.09;5078416;27;19927;-85
2022/08/16 00:17:57;;;;;;;;;;;;;;;27.17;96.40;98054.78;5093859;28;20451;-85
2022/08/16 00:20:22;;;;;;;;;;;;;;;26.30;97.11;98068.19;5075664;27;20052;-86
2022/08/16 00:22:48;;;;;;;;;;;;;;;26.03;100.00;98069.47;5080202;28;19926;-86
2022/08/16 00:25:14;;;;;;;;;;;;;;;25.65;100.00;98077.09;5080749;28;19915;-85
2022/08/16 00:27:40;;;;;;;;;;;;;;;25.02;100.00;98075.94;5075240;28;19919;-85
2022/08/16 00:30:06;;;;;;;;;;;;;;;25.73;100.00;98078.88;5093854;28;19931;-85
2022/08/16 00:32:31;;;;;;;;;;;;;;;26.13;100.00;98074.53;5092232;28;20317;-85
2022/08/16 00:34:56;;;;;;;;;;;;;;;25.84;100.00;98087.28;5079276;28;20372;-85
2022/08/16 00:37:22;;;;;;;;;;;;;;;25.23;100.00;98078.16;5073887;28;19919;-85
2022/08/16 00:39:47;;;;;;;;;;;;;;;25.64;100.00;98081.56;5080453;28;19976;-86
2022/08/16 00:42:13;;;;;;;;;;;;;;;24.95;100.00;98083.69;5096631;28;19916;-85
2022/08/16 00:44:38;;;;;;;;;;;;;;;25.21;100.00;98083.56;5093224;27;20004;-85
2022/08/16 00:47:07;;;;;;;;;;;;;;;25.18;100.00;98075.13;5097622;27;19916;-86
2022/08/16 00:49:33;;;;;;;;;;;;;;;25.35;100.00;98082.06;5083693;27;19916;-85
2022/08/16 00:51:58;;;;;;;;;;;;;;;25.66;100.00;98084.84;5081986;27;19937;-85
2022/08/16 00:54:24;;;;;;;;;;;;;;;25.33;100.00;98084.06;5085571;27;20047;-85
2022/08/16 00:56:50;;;;;;;;;;;;;;;25.29;100.00;98080.09;5096888;27;19912;-85
2022/08/16 00:59:16;;;;;;;;;;;;;;;25.07;100.00;98078.13;5098592;27;19915;-85
2022/08/16 01:01:41;;;;;;;;;;;;;;;25.02;100.00;98087.31;5088605;27;20014;-85
2022/08/16 01:04:07;;;;;;;;;;;;;;;25.47;100.00;98087.84;5081945;27;19990;-85
2022/08/16 01:06:32;;;;;;;;;;;;;;;25.07;100.00;98083.38;5102963;28;20363;-85
2022/08/16 01:08:58;;;;;;;;;;;;;;;25.21;100.00;98074.84;5099879;27;19992;-85
2022/08/16 01:11:23;;;;;;;;;;;;;;;25.08;100.00;98079.75;5079047;27;20643;-86
2022/08/16 01:13:49;;;;;;;;;;;;;;;25.03;100.00;98077.59;5097224;27;19919;-85
2022/08/16 01:16:16;;;;;;;;;;;;;;;24.71;100.00;98081.03;5100674;27;19954;-85
2022/08/16 01:18:45;;;;;;;;;;;;;;;24.68;100.00;98078.69;5099934;27;19998;-85
2022/08/16 01:21:17;;;;;;;;;;;;;;;25.19;100.00;98076.81;5082785;27;19919;-86
2022/08/16 01:23:54;;;;;;;;;;;;;;;25.13;100.00;98066.91;5118216;27;19923;-85
2022/08/16 01:26:20;;;;;;;;;;;;;;;25.28;100.00;98075.81;5098182;27;20007;-85
2022/08/16 01:28:45;;;;;;;;;;;;;;;25.49;100.00;98067.41;5081383;27;20007;-85
2022/08/16 01:31:10;;;;;;;;;;;;;;;25.30;100.00;98073.03;5095947;28;19926;-85
2022/08/16 01:33:35;;;;;;;;;;;;;;;24.94;100.00;98068.03;5082173;27;20051;-85
2022/08/16 01:36:02;;;;;;;;;;;;;;;24.59;100.00;98070.78;5097737;28;19923;-85
2022/08/16 01:38:38;;;;;;;;;;;;;;;24.87;100.00;98067.88;5081335;27;19919;-84
2022/08/16 01:41:08;;;;;;;;;;;;;;;25.41;100.00;98068.25;5082325;27;19938;-85
2022/08/16 01:43:34;;;;;;;;;;;;;;;26.23;100.00;98060.13;5097659;27;19915;-85
2022/08/16 01:46:00;;;;;;;;;;;;;;;25.61;100.00;98070.50;5081517;27;20290;-85
2022/08/16 01:48:26;;;;;;;;;;;;;;;25.45;100.00;98060.81;5079840;27;19918;-85
2022/08/16 01:50:52;;;;;;;;;;;;;;;25.11;100.00;98071.50;5099780;27;19912;-85
2022/08/16 01:53:17;;;;;;;;;;;;;;;25.70;100.00;98069.50;5080543;27;19916;-85
2022/08/16 01:55:45;;;;;;;;;;;;;;;26.12;100.00;98060.50;5080218;27;19972;-85
2022/08/16 01:58:14;;;;;;;;;;;;;;;24.81;100.00;98068.50;5097486;27;19919;-85
2022/08/16 02:00:39;;;;;;;;;;;;;;;25.80;100.00;98054.31;5098187;27;19927;-85
2022/08/16 02:03:04;;;;;;;;;;;;;;;26.01;100.00;98055.59;5098250;27;19912;-85
2022/08/16 02:05:29;;;;;;;;;;;;;;;25.69;100.00;98052.03;5097682;27;20265;-84
2022/08/16 02:07:55;;;;;;;;;;;;;;;25.26;100.00;98056.72;5095420;27;19940;-85
2022/08/16 02:10:21;;;;;;;;;;;;;;;25.40;100.00;98047.31;5098748;27;20367;-85
2022/08/16 02:12:46;;;;;;;;;;;;;;;24.74;100.00;98062.25;5095305;28;19931;-85
2022/08/16 02:15:12;;;;;;;;;;;;;;;25.09;100.00;98066.41;5097442;27;19920;-85
2022/08/16 02:17:37;;;;;;;;;;;;;;;25.27;100.00;98062.81;5081152;27;20944;-85
2022/08/16 02:20:03;;;;;;;;;;;;;;;25.17;100.00;98063.75;5096376;27;19926;-85
2022/08/16 02:22:29;;;;;;;;;;;;;;;24.81;100.00;98071.16;5082158;27;19915;-85
2022/08/16 02:24:54;;;;;;;;;;;;;;;24.52;100.00;98072.41;5085451;27;19922;-85
2022/08/16 02:27:19;;;;;;;;;;;;;;;25.38;100.00;98059.84;5078229;27;20066;-85
2022/08/16 02:29:44;;;;;;;;;;;;;;;25.09;100.00;98066.41;5097683;27;19920;-85
2022/08/16 02:32:12;;;;;;;;;;;;;;;25.10;100.00;98056.69;5078572;28;19916;-85
2022/08/16 02:34:37;;;;;;;;;;;;;;;25.21;100.00;98059.03;5098199;27;20384;-85
2022/08/16 02:37:03;;;;;;;;;;;;;;;24.57;100.00;98062.22;5078052;27;19918;-85
2022/08/16 02:39:28;;;;;;;;;;;;;;;24.49;100.00;98069.28;5079987;27;19916;-85
2022/08/16 02:41:53;;;;;;;;;;;;;;;24.85;100.00;98048.78;5097595;27;19916;-85
2022/08/16 02:44:19;;;;;;;;;;;;;;;24.48;100.00;98057.94;5099732;27;20035;-85
2022/08/16 02:46:44;;;;;;;;;;;;;;;24.32;100.00;98057.84;5097590;27;19915;-85
2022/08/16 02:49:10;;;;;;;;;;;;;;;24.94;100.00;98047.78;5096142;27;19966;-85
2022/08/16 02:51:35;;;;;;;;;;;;;;;25.08;100.00;98045.50;5077859;28;19915;-85
2022/08/16 02:54:00;;;;;;;;;;;;;;;24.77;100.00;98046.13;5078201;27;20056;-85
2022/08/16 02:56:28;;;;;;;;;;;;;;;25.32;100.00;98040.25;5106619;27;19930;-85
2022/08/16 02:58:54;;;;;;;;;;;;;;;25.47;100.00;98043.00;5093829;28;19962;-85
2022/08/16 03:01:24;;;;;;;;;;;;;;;24.93;100.00;98040.91;5096528;27;19919;-85
2022/08/16 03:03:49;;;;;;;;;;;;;;;24.86;100.00;98049.59;5097290;27;19915;-85
2022/08/16 03:06:18;;;;;;;;;;;;;;;24.90;100.00;98046.47;5078554;27;20332;-86
2022/08/16 03:08:43;;;;;;;;;;;;;;;24.93;100.00;98051.44;5100988;27;19912;-85
2022/08/16 03:11:08;;;;;;;;;;;;;;;25.13;100.00;98054.53;5098710;28;19916;-85
2022/08/16 03:13:34;;;;;;;;;;;;;;;24.96;100.00;98050.28;5096826;27;20443;-85
2022/08/16 03:15:59;;;;;;;;;;;;;;;23.98;100.00;98061.34;5096653;27;20340;-85
2022/08/16 03:18:27;;;;;;;;;;;;;;;24.57;100.00;98061.41;5091477;28;19922;-85
2022/08/16 03:20:52;;;;;;;;;;;;;;;24.63;100.00;98060.75;5115650;27;20007;-85
2022/08/16 03:23:17;;;;;;;;;;;;;;;24.75;100.00;98059.47;5097132;27;19997;-85
2022/08/16 03:25:42;;;;;;;;;;;;;;;24.74;100.00;98057.00;5094417;28;20006;-84
2022/08/16 03:28:08;;;;;;;;;;;;;;;24.53;100.00;98065.34;5094208;27;19915;-85
2022/08/16 03:30:34;;;;;;;;;;;;;;;25.03;100.00;98051.25;5097115;27;19922;-86
2022/08/16 03:32:59;;;;;;;;;;;;;;;25.50;100.00;98057.69;5099666;27;20330;-85
2022/08/16 03:35:26;;;;;;;;;;;;;;;25.28;100.00;98056.56;5100820;27;19943;-85
2022/08/16 03:37:53;;;;;;;;;;;;;;;25.76;100.00;98053.00;5087788;28;19923;-85
2022/08/16 03:40:18;;;;;;;;;;;;;;;25.47;100.00;98064.09;5096644;27;19912;-85
2022/08/16 03:42:43;;;;;;;;;;;;;;;25.44;100.00;98060.00;5113120;27;20410;-86
2022/08/16 03:45:09;;;;;;;;;;;;;;;25.70;99.96;98060.78;5081742;28;20410;-86
2022/08/16 03:47:34;;;;;;;;;;;;;;;25.57;99.80;98063.94;5080157;27;20014;-85
2022/08/16 03:50:00;;;;;;;;;;;;;;;26.05;100.00;98062.19;5093274;28;20311;-86
2022/08/16 03:52:25;;;;;;;;;;;;;;;26.50;97.32;98050.09;5079441;27;20683;-86
2022/08/16 03:54:51;;;;;;;;;;;;;;;26.30;96.58;98057.63;5100061;27;20018;-86
2022/08/16 03:57:16;;;;;;;;;;;;;;;26.05;100.00;98059.56;5073429;27;19972;-85
2022/08/16 03:59:42;;;;;;;;;;;;;;;25.77;98.91;98059.09;5081492;27;20328;-86
2022/08/16 04:02:07;;;;;;;;;;;;;;;25.92;100.00;98068.00;5094949;28;19915;-86
2022/08/16 04:04:34;;;;;;;;;;;;;;;25.73;99.37;98063.91;5094059;28;19922;-86
2022/08/16 04:07:03;;;;;;;;;;;;;;;25.84;99.81;98063.56;5096965;27;19915;-85
2022/08/16 04:09:30;;;;;;;;;;;;;;;26.08;99.70;98065.31;5081828;27;19919;-86
2022/08/16 04:11:55;;;;;;;;;;;;;;;25.94;96.51;98071.28;5092428;27;20051;-86
2022/08/16 04:14:20;;;;;;;;;;;;;;;26.01;98.12;98074.06;5096737;28;19935;-85
2022/08/16 04:16:45;;;;;;;;;;;;;;;25.95;97.28;98062.38;5078087;27;19959;-86
2022/08/16 04:19:11;;;;;;;;;;;;;;;25.54;100.00;98072.16;5092763;28;19926;-86
2022/08/16 04:21:36;;;;;;;;;;;;;;;25.92;99.85;98069.81;5081749;27;19966;-86
2022/08/16 04:24:01;;;;;;;;;;;;;;;25.83;96.87;98076.91;5080436;27;19919;-85
2022/08/16 04:26:27;;;;;;;;;;;;;;;25.79;98.66;98070.31;5091901;28;19916;-86
2022/08/16 04:28:52;;;;;;;;;;;;;;;26.35;98.14;98067.69;5110498;27;19916;-85
2022/08/16 04:31:17;;;;;;;;;;;;;;;26.06;98.71;98074.38;5091105;28;19969;-86
2022/08/16 04:33:43;;;;;;;;;;;;;;;25.82;99.29;98078.72;5092401;28;20296;-85
2022/08/16 04:36:10;;;;;;;;;;;;;;;25.86;99.05;98072.13;5078520;28;19929;-85
2022/08/16 04:38:36;;;;;;;;;;;;;;;26.05;100.00;98078.03;5095092;28;19918;-86
2022/08/16 04:41:01;;;;;;;;;;;;;;;26.02;100.00;98078.34;5077509;28;19916;-86
2022/08/16 04:43:26;;;;;;;;;;;;;;;26.50;98.67;98081.78;5097721;28;19923;-85
2022/08/16 04:45:51;;;;;;;;;;;;;;;26.25;98.31;98075.78;5097435;28;19911;-85
2022/08/16 04:48:16;;;;;;;;;;;;;;;26.30;97.39;98086.69;5074529;28;19919;-86
2022/08/16 04:50:43;;;;;;;;;;;;;;;26.23;97.14;98086.53;5094572;28;19938;-86
2022/08/16 04:53:08;;;;;;;;;;;;;;;26.55;98.25;98083.94;5094768;28;20284;-86
2022/08/16 04:55:33;;;;;;;;;;;;;;;25.96;99.16;98086.97;5074902;28;19920;-86
2022/08/16 04:57:59;;;;;;;;;;;;;;;26.02;96.96;98092.38;5077296;28;19965;-86
2022/08/16 05:00:25;;;;;;;;;;;;;;;26.99;97.35;98092.09;5097679;28;19954;-86
2022/08/16 05:02:51;;;;;;;;;;;;;;;27.15;95.38;98088.50;5096109;28;20437;-86
2022/08/16 05:05:17;;;;;;;;;;;;;;;27.22;93.40;98083.34;5080494;28;19920;-85
2022/08/16 05:07:42;;;;;;;;;;;;;;;27.15;94.34;98079.75;5078884;28;19915;-85
2022/08/16 05:10:07;;;;;;;;;;;;;;;27.16;94.41;98089.31;5096832;28;20896;-86
2022/08/16 05:12:33;;;;;;;;;;;;;;;26.33;96.21;98096.06;5077640;28;20321;-86
2022/08/16 05:14:58;;;;;;;;;;;;;;;26.85;93.07;98084.91;5074366;28;19926;-85
2022/08/16 05:17:27;;;;;;;;;;;;;;;26.55;95.41;98095.34;5078642;28;19991;-84
2022/08/16 05:19:53;;;;;;;;;;;;;;;26.35;97.62;98100.16;5078388;28;19916;-86
2022/08/16 05:22:18;;;;;;;;;;;;;;;26.72;95.84;98100.53;5097295;28;19930;-87
2022/08/16 05:24:43;;;;;;;;;;;;;;;26.54;95.56;98098.91;5096402;28;19915;-88
2022/08/16 05:27:08;;;;;;;;;;;;;;;26.68;94.31;98100.84;5077842;28;19916;-87
2022/08/16 05:29:34;;;;;;;;;;;;;;;27.10;94.43;98096.94;5080579;28;20439;-85
2022/08/16 05:32:00;;;;;;;;;;;;;;;26.99;92.65;98101.84;5098102;27;19964;-85
2022/08/16 05:34:25;;;;;;;;;;;;;;;26.46;94.83;98101.63;5080738;27;19974;-86
2022/08/16 05:36:51;;;;;;;;;;;;;;;26.63;95.07;98107.66;5098233;27;19951;-85
2022/08/16 05:39:17;;;;;;;;;;;;;;;26.12;96.20;98105.38;5081753;27;20016;-86
2022/08/16 05:41:42;;;;;;;;;;;;;;;26.42;94.28;98111.69;5105340;27;19990;-86
2022/08/16 05:44:08;;;;;;;;;;;;;;;25.23;100.00;98125.56;5102280;27;19941;-86
2022/08/16 05:46:33;;;;;;;;;;;;;;;25.97;97.69;98120.25;5114470;27;19966;-85
2022/08/16 05:48:58;;;;;;;;;;;;;;;26.25;97.48;98118.00;5099876;27;19912;-86
2022/08/16 05:51:24;;;;;;;;;;;;;;;26.40;96.25;98118.13;5113483;27;20384;-86
2022/08/16 05:53:49;;;;;;;;;;;;;;;26.32;98.90;98126.06;5119234;27;19940;-86
2022/08/16 05:56:15;;;;;;;;;;;;;;;26.41;96.65;98119.78;5086289;27;19989;-86
2022/08/16 05:58:40;;;;;;;;;;;;;;;26.91;94.89;98121.19;5100897;27;19916;-86
2022/08/16 06:01:05;;;;;;;;;;;;;;;27.12;93.62;98116.09;5082830;27;19919;-85
2022/08/16 06:03:31;;;;;;;;;;;;;;;26.66;98.64;98128.44;5084603;27;19912;-86
2022/08/16 06:05:57;;;;;;;;;;;;;;;27.31;93.80;98116.66;5081053;27;19919;-85
2022/08/16 06:08:23;;;;;;;;;;;;;;;27.12;94.66;98126.69;5119571;27;19956;-83
2022/08/16 06:10:48;;;;;;;;;;;;;;;27.04;93.55;98117.97;5101282;27;19920;-85
2022/08/16 06:13:13;;;;;;;;;;;;;;;27.27;92.69;98115.34;5083586;27;19961;-84
2022/08/16 06:15:39;;;;;;;;;;;;;;;28.29;91.12;98114.88;5099612;27;20961;-83
2022/08/16 06:18:04;;;;;;;;;;;;;;;28.03;88.49;98117.97;5084524;27;19955;-83
2022/08/16 06:20:29;;;;;;;;;;;;;;;28.44;87.73;98123.63;5079295;27;19964;-83
2022/08/16 06:22:55;;;;;;;;;;;;;;;28.34;90.26;98129.19;5079936;27;19923;-83
2022/08/16 06:25:21;;;;;;;;;;;;;;;28.65;88.04;98125.53;5081034;27;19984;-84
2022/08/16 06:27:46;;;;;;;;;;;;;;;28.84;85.37;98129.41;5096512;27;19922;-83
2022/08/16 06:30:12;;;;;;;;;;;;;;;28.94;82.87;98129.94;5111966;27;20035;-84
2022/08/16 06:32:37;;;;;;;;;;;;;;;28.67;85.42;98133.28;5098935;27;20375;-83
2022/08/16 06:35:03;;;;;;;;;;;;;;;28.77;87.50;98128.53;5081249;27;19920;-84
2022/08/16 06:37:28;;;;;;;;;;;;;;;29.05;83.95;98127.78;5099199;27;19916;-84
2022/08/16 06:39:53;;;;;;;;;;;;;;;29.22;84.08;98131.03;5080799;27;20045;-84
2022/08/16 06:42:19;;;;;;;;;;;;;;;29.53;84.76;98123.56;5080179;27;19919;-85
2022/08/16 06:44:44;;;;;;;;;;;;;;;29.55;82.11;98121.53;5079097;27;20008;-84
2022/08/16 06:47:11;;;;;;;;;;;;;;;29.90;81.82;98129.59;5080145;27;19962;-84
2022/08/16 06:49:37;;;;;;;;;;;;;;;30.01;77.93;98128.22;5095330;27;19920;-83
2022/08/16 06:52:02;;;;;;;;;;;;;;;29.74;82.29;98132.53;5083059;27;19965;-83
2022/08/16 06:54:27;;;;;;;;;;;;;;;29.58;78.11;98128.28;5097302;27;19932;-84
2022/08/16 06:56:53;;;;;;;;;;;;;;;30.03;79.94;98134.97;5098904;27;19930;-84
2022/08/16 06:59:18;;;;;;;;;;;;;;;30.25;80.54;98137.56;5080825;27;19916;-84
2022/08/16 07:01:44;;;;;;;;;;;;;;;29.95;76.92;98144.94;5096173;27;19951;-84
2022/08/16 07:04:09;;;;;;;;;;;;;;;30.14;77.78;98141.56;5096435;27;19911;-84
2022/08/16 07:06:34;;;;;;;;;;;;;;;30.21;77.98;98147.75;5098656;27;19938;-84
2022/08/16 07:08:59;;;;;;;;;;;;;;;30.44;78.33;98157.28;5098061;27;19923;-84
2022/08/16 07:11:25;;;;;;;;;;;;;;;30.12;78.35;98159.53;5083927;27;19969;-84
2022/08/16 07:13:51;;;;;;;;;;;;;;;30.11;79.42;98160.56;5097483;27;19928;-84
2022/08/16 07:16:16;;;;;;;;;;;;;;;31.04;76.38;98154.84;5093937;27;19931;-84
2022/08/16 07:18:44;;;;;;;;;;;;;;;31.08;74.92;98163.28;5078931;27;19916;-84
2022/08/16 07:21:11;;;;;;;;;;;;;;;30.41;75.25;98155.84;5093835;27;19933;-84
2022/08/16 07:23:37;;;;;;;;;;;;;;;30.82;73.99;98157.66;5080948;27;19999;-84
2022/08/16 07:26:02;;;;;;;;;;;;;;;31.20;70.80;98151.84;5096225;27;20027;-84
2022/08/16 07:28:28;;;;;;;;;;;;;;;31.13;72.48;98158.16;5095427;27;20002;-84
2022/08/16 07:30:53;;;;;;;;;;;;;;;31.54;68.18;98151.88;5086298;27;19916;-84
2022/08/16 07:33:18;;;;;;;;;;;;;;;31.80;68.47;98151.06;5095821;27;19915;-84
2022/08/16 07:35:43;;;;;;;;;;;;;;;32.19;67.03;98155.53;5092277;27;19915;-84
2022/08/16 07:38:09;;;;;;;;;;;;;;;31.45;70.90;98161.91;5113383;27;19916;-84
2022/08/16 07:40:34;;;;;;;;;;;;;;;31.75;66.70;98161.50;5095490;27;19959;-83
2022/08/16 07:43:00;;;;;;;;;;;;;;;32.56;67.92;98166.53;5112806;27;19961;-84
2022/08/16 07:45:25;;;;;;;;;;;;;;;31.44;68.94;98162.94;5080319;27;20051;-84
2022/08/16 07:47:51;;;;;;;;;;;;;;;32.37;66.57;98165.53;5112260;27;20003;-86
2022/08/16 07:50:16;;;;;;;;;;;;;;;32.43;67.59;98167.38;5079261;27;20382;-84
2022/08/16 07:52:42;;;;;;;;;;;;;;;32.16;70.01;98168.44;5097475;27;19922;-84
2022/08/16 07:55:08;;;;;;;;;;;;;;;32.20;70.21;98167.00;5080739;27;19920;-84
2022/08/16 07:57:33;;;;;;;;;;;;;;;32.55;67.01;98161.38;5095727;27;19911;-85
2022/08/16 07:59:59;;;;;;;;;;;;;;;32.77;66.93;98169.91;5096852;27;20298;-83
2022/08/16 08:02:25;;;;;;;;;;;;;;;33.52;62.25;98180.78;5078449;27;20529;-84
2022/08/16 08:04:51;;;;;;;;;;;;;;;31.87;68.59;98183.84;5081579;28;19915;-84
2022/08/16 08:07:16;;;;;;;;;;;;;;;32.29;65.32;98182.56;5110227;27;19926;-84
2022/08/16 08:09:41;;;;;;;;;;;;;;;32.92;62.13;98192.63;5080115;28;19951;-84
2022/08/16 08:12:07;;;;;;;;;;;;;;;32.86;64.21;98187.31;5116224;27;19919;-84
2022/08/16 08:14:32;;;;;;;;;;;;;;;33.25;60.42;98190.81;5080849;27;19923;-84
2022/08/16 08:16:58;;;;;;;;;;;;;;;33.73;60.26;98187.63;5095548;27;19916;-85
2022/08/16 08:19:25;;;;;;;;;;;;;;;34.70;56.58;98192.47;5079857;28;19915;-84
2022/08/16 08:21:52;;;;;;;;;;;;;;;33.40;59.38;98198.53;5080036;27;19915;-84
2022/08/16 08:24:18;;;;;;;;;;;;;;;34.62;55.51;98200.78;5099126;27;19915;-85
2022/08/16 08:26:43;;;;;;;;;;;;;;;34.89;53.02;98199.41;5083398;28;19941;-85
2022/08/16 08:29:11;;;;;;;;;;;;;;;33.66;55.62;98198.34;5117688;27;19915;-85
2022/08/16 08:31:37;;;;;;;;;;;;;;;33.99;57.56;98205.28;5077645;28;19968;-84
2022/08/16 08:34:03;;;;;;;;;;;;;;;34.15;60.67;98202.06;5097031;28;19916;-85
2022/08/16 08:36:29;;;;;;;;;;;;;;;35.01;56.90;98202.13;5078395;28;19920;-84
2022/08/16 08:38:54;;;;;;;;;;;;;;;33.66;55.73;98200.22;5109309;28;19923;-84
2022/08/16 08:41:19;;;;;;;;;;;;;;;33.88;53.74;98195.31;5120167;28;19912;-85
2022/08/16 08:43:48;;;;;;;;;;;;;;;34.06;55.66;98198.03;5114022;28;19919;-84
2022/08/16 08:46:13;;;;;;;;;;;;;;;34.09;54.97;98196.75;5096049;28;20368;-85
2022/08/16 08:48:38;;;;;;;;;;;;;;;35.11;54.22;98205.13;5097058;28;19923;-84
2022/08/16 08:51:04;;;;;;;;;;;;;;;34.64;53.91;98214.75;5081144;28;19920;-84
2022/08/16 08:53:31;;;;;;;;;;;;;;;33.68;59.36;98206.97;5080572;28;19918;-85
2022/08/16 08:55:57;;;;;;;;;;;;;;;34.16;54.25;98209.03;5100447;28;19926;-87
2022/08/16 08:58:22;;;;;;;;;;;;;;;34.95;51.00;98208.41;5098285;28;20306;-85
2022/08/16 09:00:48;;;;;;;;;;;;;;;35.22;51.20;98216.06;5100373;28;19926;-86
2022/08/16 09:03:13;;;;;;;;;;;;;;;35.82;47.09;98210.66;5087436;28;19911;-86
2022/08/16 09:05:39;;;;;;;;;;;;;;;34.73;49.88;98213.41;5102536;27;20007;-86
2022/08/16 09:08:04;;;;;;;;;;;;;;;35.47;47.85;98216.75;5108602;27;19915;-85
2022/08/16 09:10:30;;;;;;;;;;;;;;;34.64;53.36;98220.09;5109988;27;20384;-86
2022/08/16 09:12:55;;;;;;;;;;;;;;;35.75;47.14;98215.31;5094512;27;20375;-87
2022/08/16 09:15:21;;;;;;;;;;;;;;;36.69;45.33;98214.50;5092944;27;19920;-86
2022/08/16 09:17:46;;;;;;;;;;;;;;;36.23;44.98;98209.75;5086697;28;20680;-87
2022/08/16 09:20:15;;;;;;;;;;;;;;;35.26;47.75;98218.06;5112552;27;19912;-87
2022/08/16 09:22:41;;;;;;;;;;;;;;;35.31;47.94;98228.94;5097552;27;19931;-86
2022/08/16 09:25:07;;;;;;;;;;;;;;;36.85;42.62;98219.09;5098135;27;19915;-87
2022/08/16 09:27:33;;;;;;;;;;;;;;;38.03;40.38;98221.22;5130057;27;19911;-86
2022/08/16 09:29:58;;;;;;;;;;;;;;;36.89;42.51;98220.28;5101673;28;19907;-86
2022/08/16 09:32:23;;;;;;;;;;;;;;;37.52;41.31;98223.88;5124857;27;19962;-87
2022/08/16 09:34:48;;;;;;;;;;;;;;;36.38;46.22;98227.22;5087376;28;19935;-87
2022/08/16 09:37:14;;;;;;;;;;;;;;;35.46;44.84;98227.69;5103370;27;19916;-86
2022/08/16 09:39:40;;;;;;;;;;;;;;;35.88;47.19;98235.69;5089524;27;19926;-86
2022/08/16 09:42:09;;;;;;;;;;;;;;;37.18;43.50;98222.97;5099152;27;19918;-87
2022/08/16 09:44:35;;;;;;;;;;;;;;;36.31;44.62;98230.06;5076590;27;21106;-86
2022/08/16 09:47:00;;;;;;;;;;;;;;;36.67;44.99;98220.09;5082744;27;19912;-86
2022/08/16 09:49:25;;;;;;;;;;;;;;;37.01;45.59;98215.66;5084992;27;19915;-86
2022/08/16 09:51:52;;;;;;;;;;;;;;;36.80;43.46;98219.00;5114846;27;19916;-87
2022/08/16 09:54:18;;;;;;;;;;;;;;;35.95;47.32;98231.06;5100425;27;19927;-86
2022/08/16 09:56:43;;;;;;;;;;;;;;;35.56;50.82;98225.28;5097522;27;20803;-86
2022/08/16 09:59:08;;;;;;;;;;;;;;;36.05;50.22;98220.56;5084100;27;19915;-86
2022/08/16 10:01:37;;;;;;;;;;;;;;;37.08;43.52;98212.06;5101011;27;19969;-86
2022/08/16 10:04:03;;;;;;;;;;;;;;;35.58;47.06;98225.84;5098348;28;19973;-85
2022/08/16 10:06:29;;;;;;;;;;;;;;;36.55;45.43;98214.72;5098870;27;19922;-85
2022/08/16 10:08:54;;;;;;;;;;;;;;;35.60;44.19;98218.41;5097575;27;19912;-86
2022/08/16 10:14:04;;;;;;;;;;;;;;;34.79;46.26;98223.22;5103950;27;20455;-87
2022/08/16 10:16:29;;;;;;;;;;;;;;;34.84;44.37;98220.66;5081657;27;20026;-86
2022/08/16 10:18:55;;;;;;;;;;;;;;;37.20;41.05;98212.81;5096188;27;19915;-85
2022/08/16 10:21:21;;;;;;;;;;;;;;;37.10;38.65;98215.31;5081463;27;20034;-85
2022/08/16 10:23:47;;;;;;;;;;;;;;;37.43;40.20;98210.00;5083775;27;19915;-86
2022/08/16 10:26:12;;;;;;;;;;;;;;;33.98;42.64;98214.31;5096772;27;19989;-86
2022/08/16 10:28:38;;;;;;;;;;;;;;;36.76;37.16;98209.81;5081516;28;20412;-86
2022/08/16 10:31:04;;;;;;;;;;;;;;;37.03;36.58;98200.13;5119441;27;19955;-86
2022/08/16 10:33:29;;;;;;;;;;;;;;;38.12;36.85;98205.50;5097332;27;19927;-87
2022/08/16 10:35:55;;;;;;;;;;;;;;;38.03;37.03;98207.78;5114291;27;19920;-86
2022/08/16 10:38:21;;;;;;;;;;;;;;;37.19;37.14;98212.00;5100128;27;19919;-86
2022/08/16 10:40:46;;;;;;;;;;;;;;;36.64;37.92;98213.34;5115087;27;20107;-86
2022/08/16 10:43:11;;;;;;;;;;;;;;;38.76;37.03;98215.75;5081271;27;19919;-85
2022/08/16 10:45:37;;;;;;;;;;;;;;;37.36;36.32;98216.56;5082457;27;19916;-85
2022/08/16 10:48:05;;;;;;;;;;;;;;;38.03;36.72;98215.84;5113882;27;19958;-85
2022/08/16 10:50:31;;;;;;;;;;;;;;;35.58;40.62;98228.53;5077943;27;19915;-86
2022/08/16 10:52:57;;;;;;;;;;;;;;;36.54;39.97;98218.47;5101407;27;19968;-85
2022/08/16 10:55:22;;;;;;;;;;;;;;;37.46;36.01;98219.47;5097893;27;19920;-85
2022/08/16 10:57:47;;;;;;;;;;;;;;;38.37;34.41;98215.78;5097200;28;19916;-86
2022/08/16 11:00:13;;;;;;;;;;;;;;;35.37;37.58;98216.47;5112196;27;20413;-85
2022/08/16 11:02:39;;;;;;;;;;;;;;;36.33;37.34;98221.75;5099700;28;19919;-86
2022/08/16 11:05:11;;;;;;;;;;;;;;;36.02;38.44;98226.41;5099933;27;20489;-86
2022/08/16 11:07:41;;;;;;;;;;;;;;;37.69;34.85;98213.16;5095845;27;19916;-86
2022/08/16 11:10:07;;;;;;;;;;;;;;;36.92;35.34;98218.97;5100238;27;19919;-86
2022/08/16 11:12:32;;;;;;;;;;;;;;;37.95;34.33;98216.22;5111944;27;19922;-86
2022/08/16 11:14:57;;;;;;;;;;;;;;;39.33;32.53;98209.91;5112377;27;19926;-86
2022/08/16 11:17:22;;;;;;;;;;;;;;;39.39;32.29;98218.88;5080770;27;20079;-86
2022/08/16 11:19:48;;;;;;;;;;;;;;;37.17;32.97;98215.97;5098285;27;19920;-87
2022/08/16 11:22:13;;;;;;;;;;;;;;;38.92;31.25;98214.88;5100719;27;19912;-86
2022/08/16 11:24:39;;;;;;;;;;;;;;;40.59;29.79;98204.88;5080967;28;19923;-86
2022/08/16 11:27:08;;;;;;;;;;;;;;;39.08;30.91;98222.06;5114540;27;19998;-86
2022/08/16 11:29:34;;;;;;;;;;;;;;;39.57;32.30;98220.38;5083532;28;19912;-86
2022/08/16 11:31:59;;;;;;;;;;;;;;;39.90;31.56;98225.53;5094368;27;19923;-85
2022/08/16 11:34:25;;;;;;;;;;;;;;;40.02;32.11;98221.84;5077964;28;19926;-86
2022/08/16 11:36:51;;;;;;;;;;;;;;;40.59;31.27;98229.19;5095352;28;19922;-86
2022/08/16 11:39:16;;;;;;;;;;;;;;;39.92;31.22;98228.78;5080411;27;20011;-88
2022/08/16 11:41:41;;;;;;;;;;;;;;;40.28;30.20;98231.75;5101019;27;19950;-86
2022/08/16 11:44:07;;;;;;;;;;;;;;;39.68;30.29;98233.69;5098685;27;19942;-86
2022/08/16 11:46:34;;;;;;;;;;;;;;;39.68;32.39;98232.88;5080266;27;19965;-86
2022/08/16 11:49:00;;;;;;;;;;;;;;;39.79;30.91;98223.00;5094537;28;19955;-86
2022/08/16 11:51:26;;;;;;;;;;;;;;;40.15;31.23;98234.88;5079238;27;20010;-86
2022/08/16 11:53:51;;;;;;;;;;;;;;;40.32;31.56;98227.44;5096086;28;20006;-86
2022/08/16 11:56:17;;;;;;;;;;;;;;;41.41;29.02;98221.34;5096134;28;19931;-85
2022/08/16 11:58:42;;;;;;;;;;;;;;;41.09;29.80;98219.66;5100610;27;19965;-85
2022/08/16 12:01:07;;;;;;;;;;;;;;;39.31;29.61;98230.91;5112234;27;19919;-85
2022/08/16 12:03:33;;;;;;;;;;;;;;;41.26;29.56;98226.72;5095852;27;19916;-86
2022/08/16 12:06:09;;;;;;;;;;;;;;;41.36;28.72;98230.25;5109484;27;20378;-86
2022/08/16 12:08:34;;;;;;;;;;;;;;;39.99;29.85;98233.16;5094028;27;19915;-86
2022/08/16 12:11:00;;;;;;;;;;;;;;;40.03;30.25;98232.38;5096216;27;19964;-85
2022/08/16 12:13:26;;;;;;;;;;;;;;;39.91;31.65;98234.44;5092686;27;20426;-86
2022/08/16 12:15:51;;;;;;;;;;;;;;;40.24;29.98;98236.00;5092965;28;19962;-85
2022/08/16 12:18:16;;;;;;;;;;;;;;;39.75;31.37;98238.84;5088628;28;19919;-85
2022/08/16 12:20:43;;;;;;;;;;;;;;;40.58;29.62;98229.44;5092148;27;19916;-86
2022/08/16 12:23:08;;;;;;;;;;;;;;;39.63;32.61;98240.94;5091403;27;19961;-85
2022/08/16 12:25:34;;;;;;;;;;;;;;;41.84;30.31;98229.22;5081434;27;20490;-86
2022/08/16 12:27:59;;;;;;;;;;;;;;;42.18;29.54;98234.88;5074571;28;20383;-85
2022/08/16 12:30:27;;;;;;;;;;;;;;;41.24;30.48;98232.41;5111349;28;19912;-85
2022/08/16 12:32:53;;;;;;;;;;;;;;;41.86;30.07;98227.06;5094022;27;20018;-85
2022/08/16 12:35:19;;;;;;;;;;;;;;;41.26;29.52;98234.81;5073892;28;20356;-85
2022/08/16 12:37:45;;;;;;;;;;;;;;;39.82;29.38;98231.38;5091780;28;19922;-86